Time;durP1;ratioP1;P1;durP2;ratioP2;P2;SDS_P1;SDS_P2;PMS_P1;PMS_P2;Temp;Humidity;BMP_temperature;BMP_pressure;BME280_temperature;BME280_humidity;BME280_pressure;Samples;Min_cycle;Max_cycle;Signal;HPM_P1;HPM_P2
2021/11/14 00:01:25;;;;;;;14.15;9.52;;;8.10;99.90;;;;;;5034058;28;20184;-68
2021/11/14 00:03:51;;;;;;;12.93;8.60;;;8.10;99.90;;;;;;5050445;28;20260;-68
2021/11/14 00:06:20;;;;;;;11.17;9.37;;;8.10;99.90;;;;;;5053963;28;20846;-69
2021/11/14 00:08:46;;;;;;;10.35;8.43;;;8.10;99.90;;;;;;5036301;28;20194;-68
2021/11/14 00:11:14;;;;;;;12.15;10.80;;;8.10;99.90;;;;;;5054374;28;20621;-69
2021/11/14 00:13:41;;;;;;;14.23;10.45;;;8.10;99.90;;;;;;5054219;28;20168;-67
2021/11/14 00:16:10;;;;;;;15.13;11.48;;;8.10;99.90;;;;;;5050723;28;20266;-69
2021/11/14 00:18:37;;;;;;;14.55;10.18;;;8.00;99.90;;;;;;5033495;28;20198;-69
2021/11/14 00:21:03;;;;;;;12.63;10.00;;;8.00;99.90;;;;;;5034017;28;20518;-69
2021/11/14 00:23:29;;;;;;;9.25;8.02;;;8.10;99.90;;;;;;5034009;28;20180;-68
2021/11/14 00:25:55;;;;;;;16.08;11.10;;;8.00;99.90;;;;;;5034020;28;20694;-69
2021/11/14 00:28:21;;;;;;;11.63;9.27;;;8.10;99.90;;;;;;5033363;28;20272;-69
2021/11/14 00:30:47;;;;;;;15.60;9.70;;;8.10;99.90;;;;;;5033873;28;20419;-68
2021/11/14 00:33:16;;;;;;;12.00;10.23;;;8.10;99.90;;;;;;5034006;28;20180;-69
2021/11/14 00:35:42;;;;;;;13.70;10.10;;;8.10;99.90;;;;;;5033932;28;20221;-69
2021/11/14 00:38:09;;;;;;;12.27;10.07;;;8.10;99.90;;;;;;5032144;28;20197;-69
2021/11/14 00:40:37;;;;;;;22.25;9.40;;;8.10;99.90;;;;;;5033883;28;20282;-68
2021/11/14 00:43:03;;;;;;;10.75;8.45;;;8.10;99.90;;;;;;5032821;28;20224;-69
2021/11/14 00:45:31;;;;;;;12.18;9.40;;;8.10;99.90;;;;;;5033078;28;20202;-68
2021/11/14 00:47:58;;;;;;;13.07;9.38;;;8.10;99.90;;;;;;5032960;28;20243;-69
2021/11/14 00:50:25;;;;;;;11.05;8.73;;;8.10;99.90;;;;;;5033530;28;20173;-69
2021/11/14 00:52:51;;;;;;;16.23;8.65;;;8.20;99.90;;;;;;5033476;28;20165;-70
2021/11/14 00:55:19;;;;;;;12.65;9.57;;;8.20;99.90;;;;;;5032269;28;20173;-69
2021/11/14 00:57:45;;;;;;;11.07;9.00;;;8.20;99.90;;;;;;5031629;28;20189;-69
2021/11/14 01:00:16;;;;;;;10.67;9.40;;;8.10;99.90;;;;;;5033558;28;20609;-68
2021/11/14 01:02:42;;;;;;;9.57;8.57;;;8.10;99.90;;;;;;5033601;28;20173;-69
2021/11/14 01:05:10;;;;;;;16.90;11.00;;;8.10;99.90;;;;;;5033013;28;20251;-68
2021/11/14 01:07:36;;;;;;;12.30;10.00;;;8.20;99.90;;;;;;5032243;28;20192;-70
2021/11/14 01:10:05;;;;;;;14.30;10.68;;;8.10;99.90;;;;;;5033206;28;20241;-68
2021/11/14 01:12:30;;;;;;;10.23;7.72;;;8.10;99.90;;;;;;5033323;28;20526;-71
2021/11/14 01:14:56;;;;;;;15.50;10.37;;;8.20;99.90;;;;;;5033108;28;20189;-69
2021/11/14 01:17:21;;;;;;;11.20;9.50;;;8.10;99.90;;;;;;5032628;28;20582;-68
2021/11/14 01:19:47;;;;;;;11.13;8.80;;;8.10;99.90;;;;;;5033016;28;20189;-69
2021/11/14 01:22:15;;;;;;;9.60;7.97;;;8.10;99.90;;;;;;5015210;28;20192;-70
2021/11/14 01:24:41;;;;;;;12.35;9.90;;;8.20;99.90;;;;;;5033216;28;20176;-69
2021/11/14 01:27:07;;;;;;;11.77;10.27;;;8.20;99.90;;;;;;5032283;28;20200;-69
2021/11/14 01:29:32;;;;;;;16.10;10.50;;;8.20;99.90;;;;;;5032996;28;20467;-69
2021/11/14 01:31:58;;;;;;;11.67;8.40;;;8.20;99.90;;;;;;5032929;28;20173;-69
2021/11/14 01:34:25;;;;;;;14.00;8.85;;;8.20;99.90;;;;;;5032656;28;20615;-69
2021/11/14 01:36:50;;;;;;;17.25;11.15;;;8.10;99.90;;;;;;5031954;28;20181;-69
2021/11/14 01:39:16;;;;;;;9.67;8.27;;;8.10;99.90;;;;;;5032688;28;20323;-70
2021/11/14 01:41:42;;;;;;;14.27;10.73;;;8.10;99.90;;;;;;5033392;28;20185;-68
2021/11/14 01:44:08;;;;;;;12.10;9.97;;;8.10;99.90;;;;;;5032637;28;20185;-69
2021/11/14 01:46:35;;;;;;;17.35;12.00;;;8.10;99.90;;;;;;5032644;28;20542;-71
2021/11/14 01:49:00;;;;;;;10.20;8.93;;;8.10;99.90;;;;;;5032954;28;20240;-69
2021/11/14 01:51:26;;;;;;;13.37;9.43;;;8.20;99.90;;;;;;5033005;28;20630;-69
2021/11/14 01:53:52;;;;;;;11.23;9.83;;;8.10;99.90;;;;;;5033023;28;20174;-69
2021/11/14 01:56:20;;;;;;;10.80;9.70;;;8.20;99.90;;;;;;5032498;28;20174;-67
2021/11/14 01:58:46;;;;;;;15.32;10.70;;;8.20;99.90;;;;;;5031318;28;20288;-70
2021/11/14 02:01:17;;;;;;;11.15;8.20;;;8.20;99.90;;;;;;5032687;28;20169;-70
2021/11/14 02:03:50;;;;;;;15.02;9.20;;;8.20;99.90;;;;;;5032459;28;20177;-69
2021/11/14 02:06:17;;;;;;;12.65;10.02;;;8.20;99.90;;;;;;5032170;28;20194;-71
2021/11/14 02:08:45;;;;;;;10.48;8.13;;;8.20;99.90;;;;;;5032690;28;20205;-69
2021/11/14 02:11:14;;;;;;;11.90;8.95;;;8.20;99.90;;;;;;5032586;28;20294;-69
2021/11/14 02:13:41;;;;;;;9.93;8.10;;;8.20;99.90;;;;;;5032520;28;20167;-69
2021/11/14 02:16:08;;;;;;;16.90;9.88;;;8.20;99.90;;;;;;5032970;28;20194;-70
2021/11/14 02:18:34;;;;;;;10.68;9.57;;;8.20;99.90;;;;;;5032223;28;20239;-69
2021/11/14 02:21:00;;;;;;;11.50;9.07;;;8.10;99.90;;;;;;5032712;28;20174;-69
2021/11/14 02:23:26;;;;;;;10.90;9.32;;;8.10;99.90;;;;;;5032443;28;20230;-68
2021/11/14 02:25:53;;;;;;;10.53;9.60;;;8.20;99.90;;;;;;5032428;28;20284;-69
2021/11/14 02:28:21;;;;;;;12.57;9.27;;;8.20;99.90;;;;;;5032032;28;20842;-68
2021/11/14 02:30:49;;;;;;;13.02;10.40;;;8.20;99.90;;;;;;5032582;28;20169;-69
2021/11/14 02:33:15;;;;;;;14.80;10.70;;;8.20;99.90;;;;;;5032526;28;20175;-69
2021/11/14 02:35:44;;;;;;;12.20;8.88;;;8.10;99.90;;;;;;5031881;28;20190;-69
2021/11/14 02:38:10;;;;;;;10.70;8.85;;;8.20;99.90;;;;;;5032970;28;20220;-69
2021/11/14 02:40:36;;;;;;;9.20;8.25;;;8.10;99.90;;;;;;5034282;28;20236;-69
2021/11/14 02:43:01;;;;;;;13.17;10.47;;;8.20;99.90;;;;;;5036082;28;20560;-69
2021/11/14 02:45:27;;;;;;;10.60;7.83;;;8.20;99.90;;;;;;5035885;28;20208;-68
2021/11/14 02:47:54;;;;;;;14.27;7.90;;;8.20;99.90;;;;;;5035398;28;20208;-69
2021/11/14 02:50:22;;;;;;;12.35;8.45;;;8.20;99.90;;;;;;5035959;28;20166;-69
2021/11/14 02:52:48;;;;;;;15.27;7.68;;;8.20;99.90;;;;;;5035358;28;20259;-69
2021/11/14 02:55:17;;;;;;;8.57;7.78;;;8.30;99.90;;;;;;5035727;28;20580;-68
2021/11/14 02:57:43;;;;;;;12.20;8.82;;;8.30;99.90;;;;;;5035361;28;20192;-69
2021/11/14 03:00:13;;;;;;;10.07;7.97;;;8.30;99.90;;;;;;5035845;28;20176;-70
2021/11/14 03:02:39;;;;;;;11.57;8.45;;;8.30;99.90;;;;;;5035743;28;20202;-70
2021/11/14 03:05:14;;;;;;;8.87;6.43;;;8.30;99.90;;;;;;5035172;28;20193;-69
2021/11/14 03:07:40;;;;;;;13.70;8.63;;;8.30;99.90;;;;;;5035260;28;20562;-69
2021/11/14 03:10:10;;;;;;;15.80;9.18;;;8.30;99.90;;;;;;5035415;28;20165;-70
2021/11/14 03:12:36;;;;;;;10.23;7.15;;;8.30;99.90;;;;;;5035506;28;20181;-69
2021/11/14 03:15:03;;;;;;;8.63;7.70;;;8.30;99.90;;;;;;5035480;28;20178;-69
2021/11/14 03:17:29;;;;;;;10.45;8.00;;;8.40;99.90;;;;;;5035140;28;20409;-69
2021/11/14 03:19:55;;;;;;;12.43;8.38;;;8.30;99.90;;;;;;5035382;28;20169;-68
2021/11/14 03:22:21;;;;;;;10.70;9.47;;;8.30;99.90;;;;;;5037075;28;20245;-69
2021/11/14 03:24:48;;;;;;;10.40;8.17;;;8.30;99.90;;;;;;5043213;28;20219;-68
2021/11/14 03:27:15;;;;;;;14.15;9.32;;;8.30;99.90;;;;;;5047821;28;20212;-68
2021/11/14 03:29:41;;;;;;;8.30;6.82;;;8.40;99.90;;;;;;5048328;28;20236;-69
2021/11/14 03:32:12;;;;;;;9.80;7.85;;;8.30;99.90;;;;;;5049054;28;20173;-69
2021/11/14 03:34:38;;;;;;;10.90;8.05;;;8.30;99.90;;;;;;5048336;28;20173;-68
2021/11/14 03:37:15;;;;;;;10.87;8.10;;;8.30;99.90;;;;;;5047802;28;20192;-68
2021/11/14 03:39:42;;;;;;;13.30;9.98;;;8.20;99.90;;;;;;5045801;28;20177;-68
2021/11/14 03:42:08;;;;;;;13.02;9.20;;;8.20;99.90;;;;;;5035658;28;20182;-69
2021/11/14 03:44:34;;;;;;;11.80;9.30;;;8.20;99.90;;;;;;5035058;28;20636;-69
2021/11/14 03:47:00;;;;;;;12.07;9.67;;;8.20;99.90;;;;;;5034739;28;20967;-69
2021/11/14 03:49:25;;;;;;;11.40;8.60;;;8.20;99.90;;;;;;5034366;28;20496;-70
2021/11/14 03:51:51;;;;;;;10.20;8.67;;;8.20;99.90;;;;;;5034563;28;20439;-69
2021/11/14 03:54:17;;;;;;;10.33;9.23;;;8.30;99.90;;;;;;5034585;28;20214;-70
2021/11/14 03:56:42;;;;;;;13.30;9.57;;;8.20;99.90;;;;;;5032917;28;20183;-69
2021/11/14 03:59:08;;;;;;;12.13;8.03;;;8.30;99.90;;;;;;5034167;28;20581;-69
2021/11/14 04:01:34;;;;;;;14.80;7.63;;;8.20;99.90;;;;;;5034487;28;20211;-69
2021/11/14 04:04:00;;;;;;;11.37;7.70;;;8.20;99.90;;;;;;5033972;28;20224;-68
2021/11/14 04:06:26;;;;;;;9.63;8.63;;;8.30;99.90;;;;;;5041194;28;20207;-69
2021/11/14 04:08:53;;;;;;;14.23;10.63;;;8.30;99.90;;;;;;5054032;28;20790;-69
2021/11/14 04:11:20;;;;;;;9.70;7.30;;;8.30;99.90;;;;;;5054378;28;20514;-69
2021/11/14 04:13:45;;;;;;;10.30;8.57;;;8.20;99.90;;;;;;5053871;28;20235;-69
2021/11/14 04:16:11;;;;;;;11.27;9.70;;;8.30;99.90;;;;;;5052659;28;20647;-70
2021/11/14 04:18:38;;;;;;;10.93;8.57;;;8.30;99.90;;;;;;5053739;28;20276;-69
2021/11/14 04:21:05;;;;;;;9.27;7.00;;;8.30;99.90;;;;;;5023173;28;20665;-69
2021/11/14 04:23:31;;;;;;;14.07;9.45;;;8.30;99.90;;;;;;5034055;28;20172;-69
2021/11/14 04:25:57;;;;;;;11.30;8.70;;;8.30;99.90;;;;;;5032666;28;20745;-71
2021/11/14 04:28:23;;;;;;;10.63;7.90;;;8.30;99.90;;;;;;5015637;28;20450;-67
2021/11/14 04:30:51;;;;;;;9.43;7.65;;;8.20;99.90;;;;;;5033817;28;20524;-69
2021/11/14 04:33:18;;;;;;;12.68;9.98;;;8.30;99.90;;;;;;5033399;28;20538;-68
2021/11/14 04:35:44;;;;;;;9.80;8.02;;;8.20;99.90;;;;;;5033364;28;20177;-68
2021/11/14 04:38:11;;;;;;;14.60;8.83;;;8.30;99.90;;;;;;5033175;28;20200;-69
2021/11/14 04:40:39;;;;;;;12.25;7.80;;;8.30;99.90;;;;;;5033705;28;20469;-69
2021/11/14 04:43:10;;;;;;;11.82;8.27;;;8.20;99.90;;;;;;5033619;28;20185;-69
2021/11/14 04:45:36;;;;;;;12.85;9.43;;;8.20;99.90;;;;;;5033609;28;20558;-69
2021/11/14 04:48:03;;;;;;;10.13;7.93;;;8.20;99.90;;;;;;5033067;28;20288;-69
2021/11/14 04:50:29;;;;;;;12.10;7.40;;;8.20;99.90;;;;;;5033456;28;20178;-69
2021/11/14 04:52:55;;;;;;;12.20;7.50;;;8.20;99.90;;;;;;5033501;28;20192;-69
2021/11/14 04:55:21;;;;;;;15.70;8.40;;;8.20;99.90;;;;;;5033674;28;20174;-70
2021/11/14 04:57:51;;;;;;;7.90;7.10;;;8.10;99.90;;;;;;5032988;28;20629;-69
2021/11/14 05:00:37;;;;;;;9.52;8.50;;;8.20;99.90;;;;;;5033207;28;20166;-69
2021/11/14 05:03:04;;;;;;;13.60;9.38;;;8.20;99.90;;;;;;5032720;28;20558;-69
2021/11/14 05:05:30;;;;;;;10.32;7.75;;;8.20;99.90;;;;;;5033361;28;20201;-70
2021/11/14 05:07:56;;;;;;;9.55;8.15;;;8.20;99.90;;;;;;5032798;28;20268;-69
2021/11/14 05:10:22;;;;;;;8.37;6.50;;;8.20;99.90;;;;;;5033250;28;20575;-69
2021/11/14 05:12:48;;;;;;;14.80;9.17;;;8.20;99.90;;;;;;5033294;28;20181;-69
2021/11/14 05:15:14;;;;;;;8.93;7.80;;;8.20;99.90;;;;;;5032996;28;20204;-68
2021/11/14 05:17:39;;;;;;;12.48;8.48;;;8.20;99.90;;;;;;5031851;28;20228;-69
2021/11/14 05:20:06;;;;;;;10.27;9.23;;;8.20;99.90;;;;;;5033258;28;20579;-68
2021/11/14 05:22:32;;;;;;;10.38;7.95;;;8.30;99.90;;;;;;5033087;28;20205;-69
2021/11/14 05:24:58;;;;;;;14.67;9.93;;;8.20;99.90;;;;;;5033356;28;20197;-68
2021/11/14 05:27:23;;;;;;;11.50;7.10;;;8.10;99.90;;;;;;5015018;28;20232;-69
2021/11/14 05:29:49;;;;;;;12.07;9.30;;;8.10;99.90;;;;;;5013315;28;20212;-69
2021/11/14 05:32:15;;;;;;;9.80;8.10;;;8.20;99.90;;;;;;5013351;28;20194;-70
2021/11/14 05:34:40;;;;;;;10.03;9.03;;;8.20;99.90;;;;;;5032811;28;20247;-69
2021/11/14 05:37:07;;;;;;;13.43;8.80;;;8.10;99.90;;;;;;5032542;28;20177;-69
2021/11/14 05:39:33;;;;;;;7.05;5.90;;;8.10;99.90;;;;;;5032724;28;20287;-69
2021/11/14 05:41:58;;;;;;;9.13;8.23;;;8.20;99.90;;;;;;5033109;28;20207;-68
2021/11/14 05:44:24;;;;;;;9.80;8.37;;;8.20;99.90;;;;;;5033044;28;20465;-69
2021/11/14 05:46:50;;;;;;;11.17;7.10;;;8.20;99.90;;;;;;5014744;28;20217;-69
2021/11/14 05:49:16;;;;;;;8.03;6.40;;;8.20;99.90;;;;;;5031385;28;20235;-70
2021/11/14 05:51:42;;;;;;;9.30;7.10;;;8.10;99.90;;;;;;5032695;28;20167;-69
2021/11/14 05:54:08;;;;;;;9.80;8.60;;;8.20;99.90;;;;;;5032740;28;20169;-69
2021/11/14 05:56:34;;;;;;;9.55;8.55;;;8.10;99.90;;;;;;5031014;28;20961;-68
2021/11/14 06:01:45;;;;;;;8.93;7.50;;;8.10;99.90;;;;;;5032842;28;20173;-68
2021/11/14 06:06:42;;;;;;;11.95;8.60;;;8.20;99.90;;;;;;5032238;28;20198;-68
2021/11/14 06:09:08;;;;;;;9.30;7.27;;;8.20;99.90;;;;;;5032186;28;20204;-69
2021/11/14 06:11:33;;;;;;;10.47;7.07;;;8.20;99.90;;;;;;5032446;28;20170;-68
2021/11/14 06:13:59;;;;;;;13.53;8.97;;;8.10;99.90;;;;;;5034832;28;20169;-69
2021/11/14 06:16:25;;;;;;;9.93;8.90;;;8.20;99.90;;;;;;5035963;28;20553;-70
2021/11/14 06:18:50;;;;;;;9.13;6.20;;;8.20;99.90;;;;;;5036295;28;20192;-70
2021/11/14 06:21:16;;;;;;;10.27;7.57;;;8.20;99.90;;;;;;5036262;28;20166;-70
2021/11/14 06:23:41;;;;;;;9.87;7.90;;;8.30;99.90;;;;;;5036345;28;20692;-69
2021/11/14 06:26:07;;;;;;;11.90;8.50;;;8.30;99.90;;;;;;5035695;28;20201;-69
2021/11/14 06:28:33;;;;;;;11.97;7.63;;;8.30;99.90;;;;;;5035754;28;20178;-69
2021/11/14 06:30:58;;;;;;;13.77;10.03;;;8.30;99.90;;;;;;5036391;28;20650;-69
2021/11/14 06:33:24;;;;;;;13.33;9.87;;;8.20;99.90;;;;;;5036470;28;20618;-69
2021/11/14 06:35:50;;;;;;;11.67;8.33;;;8.20;99.90;;;;;;5036533;28;20175;-70
2021/11/14 06:38:16;;;;;;;17.57;10.37;;;8.20;99.90;;;;;;5035476;28;20186;-69
2021/11/14 06:40:41;;;;;;;12.97;9.57;;;8.20;99.90;;;;;;5036147;28;20168;-69
2021/11/14 06:43:08;;;;;;;14.43;9.07;;;8.20;99.90;;;;;;5036162;28;20446;-69
2021/11/14 06:45:33;;;;;;;10.40;7.80;;;8.20;99.90;;;;;;5035727;28;20444;-69
2021/11/14 06:47:59;;;;;;;17.97;10.70;;;8.20;99.90;;;;;;5035411;28;20190;-68
2021/11/14 06:50:25;;;;;;;11.67;10.17;;;8.10;99.90;;;;;;5034328;28;20177;-69
2021/11/14 06:52:51;;;;;;;13.02;10.00;;;8.10;99.90;;;;;;5035586;28;20169;-69
2021/11/14 06:55:17;;;;;;;9.13;8.23;;;8.10;99.90;;;;;;5034316;28;20173;-69
2021/11/14 06:57:44;;;;;;;8.30;7.50;;;8.10;99.90;;;;;;5033680;28;20566;-69
2021/11/14 07:00:14;;;;;;;11.35;10.15;;;8.00;99.90;;;;;;5033751;28;20169;-69
2021/11/14 07:02:40;;;;;;;10.15;8.00;;;8.10;99.90;;;;;;5034754;28;20598;-69
2021/11/14 07:05:06;;;;;;;9.02;6.60;;;8.10;99.90;;;;;;5033841;28;20182;-68
2021/11/14 07:07:33;;;;;;;12.20;9.30;;;8.10;99.90;;;;;;5031547;28;20213;-70
2021/11/14 07:09:58;;;;;;;10.48;9.10;;;8.00;99.90;;;;;;5035233;28;20171;-66
2021/11/14 07:12:26;;;;;;;12.37;9.60;;;8.00;99.90;;;;;;5035276;28;20170;-67
2021/11/14 07:14:52;;;;;;;11.27;8.73;;;8.10;99.90;;;;;;5035017;28;20190;-66
2021/11/14 07:17:18;;;;;;;11.35;9.30;;;8.00;99.90;;;;;;5035361;28;20579;-66
2021/11/14 07:19:45;;;;;;;12.23;9.13;;;8.10;99.90;;;;;;5035029;28;20184;-66
2021/11/14 07:22:11;;;;;;;11.73;7.68;;;8.10;99.90;;;;;;5034851;28;20660;-66
2021/11/14 07:24:36;;;;;;;14.20;10.40;;;8.10;99.90;;;;;;5034734;28;20261;-66
2021/11/14 07:27:03;;;;;;;11.93;10.17;;;8.10;99.90;;;;;;5034692;28;20693;-65
2021/11/14 07:29:28;;;;;;;13.18;8.30;;;8.20;99.90;;;;;;5034382;28;20459;-66
2021/11/14 07:31:54;;;;;;;13.43;8.77;;;8.20;99.90;;;;;;5034812;28;20174;-65
2021/11/14 07:34:20;;;;;;;11.23;9.47;;;8.20;99.90;;;;;;5034976;28;20181;-67
2021/11/14 07:36:45;;;;;;;14.30;10.20;;;8.20;99.90;;;;;;5035171;28;20177;-65
2021/11/14 07:39:11;;;;;;;13.33;8.43;;;8.30;99.90;;;;;;5041562;28;20196;-67
2021/11/14 07:41:37;;;;;;;11.20;8.57;;;8.30;99.90;;;;;;5054687;28;20197;-66
2021/11/14 07:44:03;;;;;;;12.53;9.80;;;8.40;99.90;;;;;;5040722;28;20522;-66
2021/11/14 07:46:29;;;;;;;12.60;9.00;;;8.40;99.90;;;;;;5033908;28;20213;-66
2021/11/14 07:48:55;;;;;;;12.87;8.57;;;8.50;99.90;;;;;;5034140;28;20262;-67
2021/11/14 07:51:21;;;;;;;14.48;8.85;;;8.50;99.90;;;;;;5033095;28;20162;-66
2021/11/14 07:53:47;;;;;;;10.20;8.23;;;8.60;99.90;;;;;;5034332;28;20197;-66
2021/11/14 07:56:12;;;;;;;9.23;7.53;;;8.60;99.90;;;;;;5047910;28;20204;-65
2021/11/14 07:58:38;;;;;;;11.60;9.60;;;8.70;99.90;;;;;;5039090;28;20280;-66
2021/11/14 08:01:04;;;;;;;8.53;6.93;;;8.70;99.90;;;;;;5033953;28;20206;-66
2021/11/14 08:03:34;;;;;;;10.30;9.20;;;8.70;99.90;;;;;;5035122;28;20919;-67
2021/11/14 08:06:01;;;;;;;11.25;8.07;;;8.70;99.90;;;;;;5034543;28;20260;-66
2021/11/14 08:08:27;;;;;;;9.98;8.98;;;8.80;99.90;;;;;;5033518;28;20277;-67
2021/11/14 08:10:52;;;;;;;11.17;7.90;;;8.80;99.90;;;;;;5032871;28;20170;-69
2021/11/14 08:13:18;;;;;;;10.97;9.40;;;8.90;99.90;;;;;;5048222;28;20407;-63
2021/11/14 08:15:44;;;;;;;11.90;9.87;;;8.90;99.90;;;;;;5052471;28;20649;-67
2021/11/14 08:18:09;;;;;;;10.73;8.07;;;9.00;99.90;;;;;;5051822;28;20201;-67
2021/11/14 08:20:36;;;;;;;11.00;8.27;;;9.10;99.90;;;;;;5038322;28;20182;-67
2021/11/14 08:23:04;;;;;;;12.30;9.52;;;9.20;99.90;;;;;;5031769;28;20260;-67
2021/11/14 08:25:29;;;;;;;13.07;8.13;;;9.30;99.90;;;;;;5031837;28;20178;-68
2021/11/14 08:27:56;;;;;;;10.70;9.27;;;9.20;99.90;;;;;;5031517;28;20182;-68
2021/11/14 08:30:22;;;;;;;11.68;9.35;;;9.20;99.90;;;;;;5031526;28;20177;-68
2021/11/14 08:32:49;;;;;;;11.18;9.73;;;9.30;99.90;;;;;;5032624;28;20170;-70
2021/11/14 08:35:16;;;;;;;11.70;9.07;;;9.20;99.90;;;;;;5032034;28;20837;-66
2021/11/14 08:37:42;;;;;;;12.07;9.00;;;9.20;99.90;;;;;;5032456;28;20518;-68
2021/11/14 08:40:09;;;;;;;10.00;9.00;;;9.20;99.90;;;;;;5033677;28;20205;-70
2021/11/14 08:42:36;;;;;;;8.32;6.93;;;9.20;99.90;;;;;;5033554;28;20260;-69
2021/11/14 08:45:04;;;;;;;7.55;6.53;;;9.20;99.90;;;;;;5031860;28;20178;-70
2021/11/14 08:47:29;;;;;;;6.70;6.00;;;9.20;99.90;;;;;;5032775;28;20197;-66
2021/11/14 08:49:55;;;;;;;11.50;8.10;;;9.20;99.90;;;;;;5033369;28;20170;-68
2021/11/14 08:52:21;;;;;;;9.10;7.60;;;9.20;99.90;;;;;;5032957;28;20527;-69
2021/11/14 08:54:47;;;;;;;9.67;7.90;;;9.30;99.90;;;;;;5033055;28;20170;-70
2021/11/14 08:57:17;;;;;;;8.20;6.97;;;9.30;99.90;;;;;;5032823;28;20775;-70
2021/11/14 08:59:43;;;;;;;11.32;8.30;;;9.30;99.90;;;;;;5032905;28;20178;-70
2021/11/14 09:02:09;;;;;;;7.37;6.27;;;9.40;99.90;;;;;;5033289;28;20176;-70
2021/11/14 09:04:35;;;;;;;9.20;8.20;;;9.50;99.90;;;;;;5033191;28;20630;-70
2021/11/14 09:07:01;;;;;;;8.50;6.70;;;9.70;99.90;;;;;;5032492;28;20236;-70
2021/11/14 09:09:27;;;;;;;10.50;7.67;;;9.80;99.90;;;;;;5032913;28;20828;-70
2021/11/14 09:11:53;;;;;;;7.57;6.30;;;9.90;99.90;;;;;;5033240;28;20412;-68
2021/11/14 09:14:19;;;;;;;11.63;9.13;;;10.00;99.90;;;;;;5033047;28;20170;-68
2021/11/14 09:16:49;;;;;;;11.23;8.10;;;10.10;99.90;;;;;;5032628;28;20185;-67
2021/11/14 09:19:15;;;;;;;8.55;7.40;;;10.20;99.90;;;;;;5015579;28;20436;-71
2021/11/14 09:21:41;;;;;;;12.47;7.47;;;10.20;99.90;;;;;;5032925;28;20176;-66
2021/11/14 09:24:08;;;;;;;7.00;6.10;;;10.20;99.90;;;;;;5032855;28;20166;-68
2021/11/14 09:26:34;;;;;;;9.02;7.20;;;10.30;99.90;;;;;;5032333;28;20697;-66
2021/11/14 09:29:00;;;;;;;11.30;6.70;;;10.30;99.90;;;;;;5032945;28;20193;-65
2021/11/14 09:31:26;;;;;;;8.55;7.05;;;10.20;99.90;;;;;;5031819;28;20231;-69
2021/11/14 09:33:54;;;;;;;8.70;7.43;;;10.20;99.90;;;;;;5032931;28;20581;-66
2021/11/14 09:36:21;;;;;;;9.10;7.00;;;10.20;99.90;;;;;;5032542;28;20416;-68
2021/11/14 09:38:48;;;;;;;9.88;7.90;;;10.20;99.90;;;;;;5032568;28;20745;-69
2021/11/14 09:41:14;;;;;;;9.90;7.90;;;10.10;99.90;;;;;;5032921;28;20642;-66
2021/11/14 09:43:39;;;;;;;8.52;5.95;;;10.00;99.90;;;;;;5015120;28;20261;-65
2021/11/14 09:46:06;;;;;;;9.10;7.87;;;10.00;99.90;;;;;;5032898;28;20285;-69
2021/11/14 09:48:32;;;;;;;9.18;7.40;;;10.00;99.90;;;;;;5035258;28;20504;-66
2021/11/14 09:50:58;;;;;;;10.05;9.02;;;10.10;99.90;;;;;;5036021;28;20173;-66
2021/11/14 09:53:36;;;;;;;10.88;6.97;;;10.00;99.90;;;;;;5036267;28;20603;-66
2021/11/14 09:56:04;;;;;;;11.68;6.75;;;10.10;99.90;;;;;;5019058;28;20177;-67
2021/11/14 09:58:31;;;;;;;8.73;6.93;;;10.00;99.90;;;;;;5036300;28;20186;-67
2021/11/14 10:00:57;;;;;;;8.05;6.32;;;10.10;99.90;;;;;;5036513;28;20195;-67
2021/11/14 10:03:23;;;;;;;9.82;6.90;;;10.10;99.90;;;;;;5036591;28;20253;-68
2021/11/14 10:05:49;;;;;;;8.50;7.70;;;10.20;99.90;;;;;;5036167;28;20335;-66
2021/11/14 10:08:16;;;;;;;10.95;7.18;;;10.20;99.90;;;;;;5036071;28;20463;-68
2021/11/14 10:10:54;;;;;;;9.35;7.63;;;10.40;99.90;;;;;;5036553;28;20174;-68
2021/11/14 10:13:27;;;;;;;11.82;7.07;;;10.50;99.90;;;;;;5036319;28;20178;-68
2021/11/14 10:16:05;;;;;;;6.05;5.35;;;10.60;99.90;;;;;;5036086;28;20197;-69
2021/11/14 10:18:30;;;;;;;9.00;7.20;;;10.70;99.90;;;;;;5035265;28;20415;-69
2021/11/14 10:20:59;;;;;;;13.50;8.50;;;10.80;99.90;;;;;;5018470;28;20201;-69
2021/11/14 10:23:25;;;;;;;13.60;8.07;;;10.90;99.90;;;;;;5036330;28;20413;-70
2021/11/14 10:25:52;;;;;;;12.82;8.05;;;10.90;99.90;;;;;;5036197;28;20331;-71
2021/11/14 10:28:19;;;;;;;9.27;6.70;;;10.90;99.90;;;;;;5035948;28;20255;-69
2021/11/14 10:30:47;;;;;;;9.48;8.05;;;10.90;99.90;;;;;;5036196;28;20162;-70
2021/11/14 10:33:18;;;;;;;11.20;7.68;;;11.00;99.90;;;;;;5036186;28;20169;-68
2021/11/14 10:35:46;;;;;;;7.15;6.30;;;11.10;99.90;;;;;;5035932;28;20177;-69
2021/11/14 10:38:19;;;;;;;8.93;6.55;;;11.20;99.90;;;;;;5035337;28;20202;-68
2021/11/14 10:40:49;;;;;;;11.48;7.70;;;11.20;99.90;;;;;;5036258;28;20515;-70
2021/11/14 10:43:18;;;;;;;9.43;6.47;;;11.30;99.90;;;;;;5035059;28;20167;-67
2021/11/14 10:45:45;;;;;;;8.82;7.22;;;11.30;99.90;;;;;;5015060;28;20561;-70
2021/11/14 10:48:14;;;;;;;10.65;6.45;;;11.30;99.90;;;;;;5013384;28;20729;-69
2021/11/14 10:50:43;;;;;;;15.05;7.47;;;11.30;99.90;;;;;;5015092;28;20173;-69
2021/11/14 10:53:12;;;;;;;12.15;7.15;;;11.30;99.90;;;;;;5014904;28;20595;-68
2021/11/14 10:55:52;;;;;;;9.50;7.53;;;11.30;99.90;;;;;;5015152;28;20613;-69
2021/11/14 10:58:21;;;;;;;8.98;6.85;;;11.40;99.90;;;;;;5018279;28;20215;-67
2021/11/14 11:00:49;;;;;;;9.73;6.25;;;11.40;99.90;;;;;;5035316;28;20194;-68
2021/11/14 11:03:15;;;;;;;6.78;5.90;;;11.50;99.90;;;;;;5035677;28;20163;-68
2021/11/14 11:05:41;;;;;;;8.40;6.45;;;11.50;99.90;;;;;;5035559;28;20195;-68
2021/11/14 11:08:13;;;;;;;8.45;6.80;;;11.30;99.90;;;;;;5034468;28;20198;-69
2021/11/14 11:10:53;;;;;;;8.25;7.35;;;11.30;99.90;;;;;;5035393;28;20177;-69
2021/11/14 11:13:39;;;;;;;8.80;7.22;;;11.20;99.90;;;;;;5035709;28;20220;-68
2021/11/14 11:16:06;;;;;;;8.70;6.70;;;11.10;99.90;;;;;;5033579;28;20677;-69
2021/11/14 11:18:33;;;;;;;9.38;7.25;;;11.10;99.90;;;;;;5034755;28;20195;-67
2021/11/14 11:21:02;;;;;;;15.70;6.88;;;11.20;99.90;;;;;;5035286;28;20241;-68
2021/11/14 11:23:28;;;;;;;12.73;8.45;;;11.20;99.90;;;;;;5035172;28;20174;-70
2021/11/14 11:25:59;;;;;;;10.43;7.27;;;11.30;99.90;;;;;;5035046;28;20193;-70
2021/11/14 11:28:35;;;;;;;11.38;5.70;;;11.30;99.90;;;;;;5034910;28;20428;-68
2021/11/14 11:31:04;;;;;;;10.13;6.47;;;11.30;99.90;;;;;;5035163;28;20163;-68
2021/11/14 11:33:34;;;;;;;8.20;7.07;;;11.30;99.90;;;;;;5035201;28;20162;-68
2021/11/14 11:36:01;;;;;;;8.63;6.93;;;11.30;99.90;;;;;;5034507;28;20175;-67
2021/11/14 11:38:28;;;;;;;9.38;6.45;;;11.40;99.90;;;;;;5032646;28;20207;-68
2021/11/14 11:40:56;;;;;;;10.02;6.82;;;11.40;99.90;;;;;;5034586;28;20258;-65
2021/11/14 11:43:22;;;;;;;6.10;5.28;;;11.40;99.90;;;;;;5034382;28;20178;-67
2021/11/14 11:45:50;;;;;;;8.23;5.97;;;11.40;99.90;;;;;;5031617;28;20557;-66
2021/11/14 11:48:25;;;;;;;6.97;5.00;;;11.40;99.90;;;;;;5033619;28;20202;-68
2021/11/14 11:50:52;;;;;;;8.85;5.57;;;11.40;99.90;;;;;;5032972;28;20174;-70
2021/11/14 11:53:26;;;;;;;8.63;5.50;;;11.40;99.90;;;;;;5034682;28;20171;-68
2021/11/14 11:56:05;;;;;;;9.23;5.10;;;11.40;99.90;;;;;;5034692;28;20167;-69
2021/11/14 11:58:52;;;;;;;9.20;5.95;;;11.40;99.90;;;;;;5033813;28;20192;-70
2021/11/14 12:01:33;;;;;;;9.10;6.05;;;11.40;99.90;;;;;;5033575;28;20554;-68
2021/11/14 12:04:21;;;;;;;7.70;5.55;;;11.40;99.90;;;;;;5034479;28;20255;-69
2021/11/14 12:07:01;;;;;;;8.82;6.35;;;11.40;99.90;;;;;;5034052;28;20352;-67
2021/11/14 12:09:38;;;;;;;9.63;5.97;;;11.40;99.90;;;;;;5033214;28;20214;-68
2021/11/14 12:12:05;;;;;;;7.85;5.85;;;11.40;99.90;;;;;;5033183;28;20209;-70
2021/11/14 12:14:33;;;;;;;8.52;6.75;;;11.40;99.90;;;;;;5034199;28;20221;-69
2021/11/14 12:17:00;;;;;;;6.35;5.75;;;11.40;99.90;;;;;;5033964;28;20183;-67
2021/11/14 12:19:30;;;;;;;9.55;7.55;;;11.40;99.90;;;;;;5033906;28;20203;-68
2021/11/14 12:22:08;;;;;;;8.35;5.38;;;11.50;99.90;;;;;;5033017;28;20174;-67
2021/11/14 12:24:51;;;;;;;8.80;5.95;;;11.60;99.90;;;;;;5032351;28;20527;-68
2021/11/14 12:27:35;;;;;;;9.82;7.07;;;11.60;99.90;;;;;;5033082;28;20622;-70
2021/11/14 12:30:10;;;;;;;13.68;7.88;;;11.60;99.90;;;;;;5034087;28;20175;-68
2021/11/14 12:32:47;;;;;;;9.43;6.78;;;11.60;99.90;;;;;;5033414;28;20508;-67
2021/11/14 12:35:24;;;;;;;9.77;6.13;;;11.70;99.90;;;;;;5050968;28;20166;-69
2021/11/14 12:38:00;;;;;;;11.00;7.25;;;11.70;99.90;;;;;;5048233;28;20204;-69
2021/11/14 12:40:39;;;;;;;10.10;6.13;;;11.70;99.90;;;;;;5053452;28;20176;-69
2021/11/14 12:43:15;;;;;;;8.93;6.10;;;11.70;99.90;;;;;;5053752;28;20165;-69
2021/11/14 12:45:51;;;;;;;12.77;7.63;;;11.60;99.90;;;;;;5053557;28;20169;-69
2021/11/14 12:48:19;;;;;;;13.38;8.85;;;11.60;99.90;;;;;;5051396;28;20223;-70
2021/11/14 12:50:45;;;;;;;10.95;8.25;;;11.50;99.90;;;;;;5053670;28;20177;-72
2021/11/14 12:53:20;;;;;;;10.77;6.45;;;11.50;99.90;;;;;;5053707;28;20641;-72